createdAt,value
2023-04-02T00:01:40.138Z,93756.69
2023-04-02T00:03:44.709Z,93766.94
2023-04-02T00:05:52.268Z,93747.94
2023-04-02T00:07:54.103Z,93756.53
2023-04-02T00:09:55.835Z,93752.44
2023-04-02T00:11:57.648Z,93745.25
2023-04-02T00:14:00.578Z,93743.63
2023-04-02T00:16:03.597Z,93743.09
2023-04-02T00:18:05.660Z,93743.69
2023-04-02T00:20:08.336Z,93750.59
2023-04-02T00:22:12.324Z,93750.72
2023-04-02T00:24:15.107Z,93756.94
2023-04-02T00:26:36.880Z,93755.38
2023-04-02T00:28:38.339Z,93746.56
2023-04-02T00:30:45.782Z,93748.75
2023-04-02T00:32:47.310Z,93749.19
2023-04-02T00:34:48.838Z,93743.16
2023-04-02T00:36:51.130Z,93748.22
2023-04-02T00:38:52.894Z,93732.81
2023-04-02T00:40:55.264Z,93740.84
2023-04-02T00:42:58.571Z,93747.53
2023-04-02T00:45:01.051Z,93740.66
2023-04-02T00:47:04.313Z,93745.81
2023-04-02T00:49:09.076Z,93733.03
2023-04-02T00:51:13.671Z,93742.88
2023-04-02T00:53:22.418Z,93735.66
2023-04-02T00:55:35.625Z,93751.63
2023-04-02T00:57:37.383Z,93750.47
2023-04-02T00:59:47.684Z,93744.03
2023-04-02T01:01:54.479Z,93747.63
2023-04-02T01:04:00.041Z,93757.56
2023-04-02T01:06:03.298Z,93739.53
2023-04-02T01:08:07.572Z,93737.22
2023-04-02T01:10:18.089Z,93729.53
2023-04-02T01:12:19.860Z,93736.81
2023-04-02T01:14:24.265Z,93731.78
2023-04-02T01:16:33.275Z,93739.31
2023-04-02T01:18:41.733Z,93735.38
2023-04-02T01:20:52.148Z,93730.56
2023-04-02T01:22:59.748Z,93752.28
2023-04-02T01:25:02.190Z,93742.78
2023-04-02T01:27:23.984Z,93729.00
2023-04-02T01:29:25.476Z,93751.03
2023-04-02T01:31:27.686Z,93743.53
2023-04-02T01:33:30.378Z,93744.16
2023-04-02T01:35:32.649Z,93746.25
2023-04-02T01:37:34.526Z,93747.63
2023-04-02T01:39:40.079Z,93749.50
2023-04-02T01:41:44.240Z,93749.81
2023-04-02T01:44:06.109Z,93747.72
2023-04-02T01:46:26.650Z,93759.69
2023-04-02T01:48:30.148Z,93756.34
2023-04-02T01:50:37.063Z,93748.97
2023-04-02T01:52:40.851Z,93731.09
2023-04-02T01:54:42.477Z,93741.38
2023-04-02T01:56:44.109Z,93738.41
2023-04-02T01:58:45.679Z,93724.63
2023-04-02T02:00:51.585Z,93737.06
2023-04-02T02:02:53.247Z,93730.28
2023-04-02T02:04:54.832Z,93733.28
2023-04-02T02:06:58.636Z,93729.31
2023-04-02T02:09:03.500Z,93730.13
2023-04-02T02:11:05.704Z,93731.28
2023-04-02T02:13:07.379Z,93738.94
2023-04-02T02:15:14.045Z,93736.16
2023-04-02T02:17:16.614Z,93739.88
2023-04-02T02:19:37.056Z,93738.13
2023-04-02T02:21:42.485Z,93745.13
2023-04-02T02:23:43.978Z,93742.38
2023-04-02T02:25:45.662Z,93750.84
2023-04-02T02:27:48.672Z,93755.00
2023-04-02T02:29:51.899Z,93759.47
2023-04-02T02:31:53.558Z,93756.19
2023-04-02T02:33:56.553Z,93758.00
2023-04-02T02:36:00.796Z,93753.78
2023-04-02T02:38:22.920Z,93754.91
2023-04-02T02:40:27.642Z,93754.25
2023-04-02T02:42:32.034Z,93742.44
2023-04-02T02:44:34.154Z,93739.56
2023-04-02T02:46:36.214Z,93737.38
2023-04-02T02:48:38.041Z,93747.13
2023-04-02T02:50:39.536Z,93733.50
2023-04-02T02:52:42.471Z,93734.94
2023-04-02T02:54:45.998Z,93733.25
2023-04-02T02:56:48.865Z,93739.56
2023-04-02T02:58:51.202Z,93740.84
2023-04-02T03:00:52.930Z,93741.13
2023-04-02T03:02:54.937Z,93742.25
2023-04-02T03:04:56.671Z,93744.06
2023-04-02T03:06:58.209Z,93744.81
2023-04-02T03:09:04.527Z,93744.09
2023-04-02T03:11:13.129Z,93744.56
2023-04-02T03:13:14.598Z,93748.28
2023-04-02T03:15:28.072Z,93748.28
2023-04-02T03:17:31.106Z,93744.84
2023-04-02T03:19:52.799Z,93748.91
2023-04-02T03:21:55.992Z,93738.63
2023-04-02T03:23:57.496Z,93746.31
2023-04-02T03:26:00.909Z,93750.84
2023-04-02T03:28:03.806Z,93760.19
2023-04-02T03:30:21.576Z,93755.31
2023-04-02T03:32:30.581Z,93747.81
2023-04-02T03:34:33.975Z,93748.44
2023-04-02T03:36:38.350Z,93757.72
2023-04-02T03:38:41.710Z,93761.25
2023-04-02T03:41:00.838Z,93760.81
2023-04-02T03:43:06.498Z,93756.88
2023-04-02T03:45:08.152Z,93762.03
2023-04-02T03:47:14.729Z,93759.75
2023-04-02T03:49:19.875Z,93771.03
2023-04-02T03:51:24.348Z,93755.81
2023-04-02T03:53:26.176Z,93754.63
2023-04-02T03:55:29.151Z,93748.59
2023-04-02T03:57:30.730Z,93755.63
2023-04-02T03:59:45.031Z,93763.81
2023-04-02T04:02:07.945Z,93750.56
2023-04-02T04:04:11.048Z,93753.75
2023-04-02T04:06:18.292Z,93760.09
2023-04-02T04:08:22.304Z,93757.91
2023-04-02T04:10:25.356Z,93763.63
2023-04-02T04:12:28.468Z,93762.81
2023-04-02T04:14:29.925Z,93762.97
2023-04-02T04:16:40.485Z,93769.19
2023-04-02T04:18:43.924Z,93768.53
2023-04-02T04:20:48.007Z,93782.31
2023-04-02T04:22:49.996Z,93772.63
2023-04-02T04:24:51.511Z,93779.59
2023-04-02T04:27:04.082Z,93789.56
2023-04-02T04:29:24.429Z,93788.44
2023-04-02T04:31:47.234Z,93797.91
2023-04-02T04:33:50.713Z,93790.91
2023-04-02T04:35:56.157Z,93796.59
2023-04-02T04:37:59.048Z,93802.66
2023-04-02T04:40:07.598Z,93797.56
2023-04-02T04:42:10.620Z,93802.28
2023-04-02T04:44:18.364Z,93805.56
2023-04-02T04:46:21.686Z,93804.59
2023-04-02T04:48:26.788Z,93802.16
2023-04-02T04:50:32.998Z,93799.03
2023-04-02T04:52:35.154Z,93812.22
2023-04-02T04:54:37.490Z,93795.28
2023-04-02T04:56:39.004Z,93804.25
2023-04-02T04:58:59.190Z,93812.06
2023-04-02T05:01:00.748Z,93805.25
2023-04-02T05:03:11.336Z,93816.97
2023-04-02T05:05:18.150Z,93804.09
2023-04-02T05:07:19.596Z,93805.41
2023-04-02T05:09:33.334Z,93809.13
2023-04-02T05:11:55.072Z,93811.13
2023-04-02T05:14:01.018Z,93803.59
2023-04-02T05:16:11.788Z,93804.75
2023-04-02T05:18:16.131Z,93812.06
2023-04-02T05:20:18.184Z,93803.06
2023-04-02T05:22:26.120Z,93812.38
2023-04-02T05:24:39.901Z,93824.31
2023-04-02T05:26:42.478Z,93809.13
2023-04-02T05:29:02.907Z,93817.91
2023-04-02T05:31:08.145Z,93820.50
2023-04-02T05:33:23.607Z,93823.44
2023-04-02T05:35:27.789Z,93824.47
2023-04-02T05:37:29.541Z,93830.97
2023-04-02T05:39:32.775Z,93832.44
2023-04-02T05:41:44.121Z,93832.59
2023-04-02T05:43:46.786Z,93830.59
2023-04-02T05:45:52.264Z,93833.69
2023-04-02T05:47:54.732Z,93825.84
2023-04-02T05:49:56.292Z,93824.97
2023-04-02T05:51:59.223Z,93829.78
2023-04-02T05:54:01.496Z,93839.41
2023-04-02T05:56:15.695Z,93838.78
2023-04-02T05:58:34.414Z,93841.88
2023-04-02T06:00:37.991Z,93845.91
2023-04-02T06:02:53.202Z,93841.56
2023-04-02T06:05:04.464Z,93846.91
2023-04-02T06:07:14.504Z,93838.91
2023-04-02T06:09:18.170Z,93843.63
2023-04-02T06:11:24.691Z,93835.38
2023-04-02T06:13:26.430Z,93847.75
2023-04-02T06:15:28.107Z,93839.81
2023-04-02T06:17:29.675Z,93849.06
2023-04-02T06:19:32.291Z,93843.72
2023-04-02T06:21:34.001Z,93834.56
2023-04-02T06:23:41.632Z,93832.38
2023-04-02T06:25:43.997Z,93842.97
2023-04-02T06:27:45.612Z,93836.84
2023-04-02T06:29:47.086Z,93841.88
2023-04-02T06:31:52.861Z,93839.16
2023-04-02T06:33:56.398Z,93843.31
2023-04-02T06:35:58.048Z,93835.94
2023-04-02T06:38:00.668Z,93836.56
2023-04-02T06:40:02.958Z,93841.69
2023-04-02T06:42:05.504Z,93839.38
2023-04-02T06:44:09.243Z,93836.66
2023-04-02T06:46:34.293Z,93838.09
2023-04-02T06:48:36.457Z,93844.03
2023-04-02T06:50:41.757Z,93837.75
2023-04-02T06:52:47.865Z,93846.41
2023-04-02T06:54:49.432Z,93843.56
2023-04-02T06:56:52.049Z,93850.63
2023-04-02T06:58:53.665Z,93850.53
2023-04-02T07:00:55.424Z,93852.81
2023-04-02T07:02:56.971Z,93860.75
2023-04-02T07:05:09.322Z,93863.56
2023-04-02T07:07:11.052Z,93855.94
2023-04-02T07:09:12.709Z,93859.66
2023-04-02T07:11:20.640Z,93865.53
2023-04-02T07:13:23.001Z,93857.94
2023-04-02T07:15:25.696Z,93865.81
2023-04-02T07:17:27.445Z,93861.31
2023-04-02T07:19:28.920Z,93869.38
2023-04-02T07:21:30.459Z,93869.88
2023-04-02T07:23:32.183Z,93874.22
2023-04-02T07:25:33.913Z,93879.28
2023-04-02T07:27:35.529Z,93876.38
2023-04-02T07:29:42.609Z,93873.53
2023-04-02T07:31:44.447Z,93874.59
2023-04-02T07:33:46.209Z,93873.38
2023-04-02T07:35:48.200Z,93877.13
2023-04-02T07:37:49.739Z,93876.31
2023-04-02T07:39:51.302Z,93873.00
2023-04-02T07:41:53.899Z,93877.72
2023-04-02T07:43:55.556Z,93873.81
2023-04-02T07:45:57.241Z,93874.75
2023-04-02T07:47:58.992Z,93875.75
2023-04-02T07:50:00.510Z,93870.16
2023-04-02T07:52:02.105Z,93868.25
2023-04-02T07:54:04.732Z,93872.56
2023-04-02T07:56:07.397Z,93873.56
2023-04-02T07:58:09.334Z,93872.66
2023-04-02T08:00:11.900Z,93872.88
2023-04-02T08:02:23.506Z,93871.66
2023-04-02T08:04:25.554Z,93875.91
2023-04-02T08:06:27.603Z,93876.97
2023-04-02T08:08:29.136Z,93895.59
2023-04-02T08:10:31.039Z,93893.09
2023-04-02T08:12:32.653Z,93894.16
2023-04-02T08:14:34.215Z,93891.03
2023-04-02T08:16:52.840Z,93892.16
2023-04-02T08:18:54.478Z,93898.72
2023-04-02T08:20:56.691Z,93895.09
2023-04-02T08:22:58.312Z,93887.66
2023-04-02T08:24:59.821Z,93900.44
2023-04-02T08:27:02.327Z,93898.38
2023-04-02T08:29:04.012Z,93895.31
2023-04-02T08:31:05.623Z,93904.41
2023-04-02T08:33:07.463Z,93896.50
2023-04-02T08:35:10.030Z,93896.84
2023-04-02T08:37:12.204Z,93905.63
2023-04-02T08:39:14.010Z,93901.47
2023-04-02T08:41:18.840Z,93900.44
2023-04-02T08:43:28.825Z,93898.72
2023-04-02T08:45:43.098Z,93901.44
2023-04-02T08:47:45.376Z,93915.53
2023-04-02T08:49:49.882Z,93898.09
2023-04-02T08:51:52.246Z,93895.03
2023-04-02T08:53:58.715Z,93901.41
2023-04-02T08:56:06.069Z,93892.88
2023-04-02T08:58:31.685Z,93896.84
2023-04-02T09:00:43.190Z,93896.94
2023-04-02T09:02:47.045Z,93896.16
2023-04-02T09:04:48.950Z,93886.25
2023-04-02T09:06:51.542Z,93893.53
2023-04-02T09:08:53.092Z,93887.63
2023-04-02T09:11:07.044Z,93896.38
2023-04-02T09:13:14.370Z,93891.69
2023-04-02T09:15:18.487Z,93888.97
2023-04-02T09:17:21.270Z,93884.34
2023-04-02T09:19:26.784Z,93893.31
2023-04-02T09:21:35.164Z,93893.13
2023-04-02T09:23:36.766Z,93887.66
2023-04-02T09:25:43.393Z,93902.38
2023-04-02T09:27:50.272Z,93896.31
2023-04-02T09:29:54.206Z,93881.53
2023-04-02T09:31:57.882Z,93883.19
2023-04-02T09:33:59.445Z,93880.53
2023-04-02T09:36:01.182Z,93886.84
2023-04-02T09:38:10.734Z,93883.19
2023-04-02T09:40:27.897Z,93887.28
2023-04-02T09:42:29.413Z,93884.63
2023-04-02T09:44:31.252Z,93883.59
2023-04-02T09:46:32.913Z,93876.91
2023-04-02T09:48:35.498Z,93879.13
2023-04-02T09:50:37.435Z,93870.25
2023-04-02T09:52:39.025Z,93880.16
2023-04-02T09:54:43.492Z,93874.06
2023-04-02T09:57:04.452Z,93870.44
2023-04-02T09:59:21.839Z,93867.19
2023-04-02T10:01:26.631Z,93863.13
2023-04-02T10:03:28.872Z,93865.34
2023-04-02T10:05:40.528Z,93870.00
2023-04-02T10:07:43.939Z,93868.41
2023-04-02T10:09:47.085Z,93863.31
2023-04-02T10:11:48.583Z,93856.19
2023-04-02T10:14:04.108Z,93860.03
2023-04-02T10:16:07.079Z,93859.25
2023-04-02T10:18:13.708Z,93854.31
2023-04-02T10:20:18.405Z,93843.50
2023-04-02T10:22:23.133Z,93853.31
2023-04-02T10:24:27.609Z,93843.25
2023-04-02T10:26:35.500Z,93856.47
2023-04-02T10:28:42.809Z,93847.91
2023-04-02T10:30:53.158Z,93845.69
2023-04-02T10:33:05.836Z,93853.78
2023-04-02T10:35:07.462Z,93855.38
2023-04-02T10:37:12.478Z,93853.19
2023-04-02T10:39:13.961Z,93854.41
2023-04-02T10:41:19.080Z,93850.97
2023-04-02T10:43:39.464Z,93851.16
2023-04-02T10:45:50.070Z,93848.69
2023-04-02T10:47:54.402Z,93855.97
2023-04-02T10:50:08.227Z,93858.09
2023-04-02T10:52:17.663Z,93856.13
2023-04-02T10:54:39.292Z,93850.72
2023-04-02T10:56:50.643Z,93849.78
2023-04-02T10:58:57.786Z,93839.09
2023-04-02T11:01:11.266Z,93850.75
2023-04-02T11:03:24.318Z,93831.09
2023-04-02T11:05:25.856Z,93843.63
2023-04-02T11:07:27.605Z,93850.94
2023-04-02T11:09:29.800Z,93844.66
2023-04-02T11:11:41.755Z,93843.06
2023-04-02T11:13:43.207Z,93846.50
2023-04-02T11:15:44.900Z,93850.16
2023-04-02T11:17:46.628Z,93851.97
2023-04-02T11:19:48.284Z,93856.41
2023-04-02T11:22:04.439Z,93843.25
2023-04-02T11:24:32.801Z,93849.94
2023-04-02T11:26:35.310Z,93839.59
2023-04-02T11:28:36.793Z,93844.25
2023-04-02T11:30:38.338Z,93843.03
2023-04-02T11:32:42.449Z,93839.03
2023-04-02T11:34:53.711Z,93831.94
2023-04-02T11:37:02.182Z,93833.28
2023-04-02T11:39:11.036Z,93823.19
2023-04-02T11:41:38.608Z,93846.13
2023-04-02T11:43:41.588Z,93830.50
2023-04-02T11:45:51.830Z,93829.88
2023-04-02T11:48:01.118Z,93822.16
2023-04-02T11:50:04.208Z,93817.81
2023-04-02T11:52:12.601Z,93818.06
2023-04-02T11:54:28.453Z,93813.56
2023-04-02T11:56:32.219Z,93820.69
2023-04-02T11:58:46.233Z,93822.94
2023-04-02T12:00:53.211Z,93811.94
2023-04-02T12:03:13.889Z,93817.31
2023-04-02T12:05:24.236Z,93835.97
2023-04-02T12:07:52.226Z,93831.06
2023-04-02T12:09:55.522Z,93820.94
2023-04-02T12:11:58.152Z,93827.56
2023-04-02T12:14:00.054Z,93822.91
2023-04-02T12:16:01.606Z,93824.59
2023-04-02T12:18:13.354Z,93818.91
2023-04-02T12:20:22.891Z,93823.16
2023-04-02T12:22:33.178Z,93811.53
2023-04-02T12:24:34.703Z,93816.78
2023-04-02T12:26:42.423Z,93818.78
2023-04-02T12:28:46.462Z,93813.41
2023-04-02T12:30:48.434Z,93823.28
2023-04-02T12:32:50.549Z,93816.63
2023-04-02T12:34:53.205Z,93805.41
2023-04-02T12:36:55.874Z,93810.75
2023-04-02T12:38:58.018Z,93813.63
2023-04-02T12:41:00.809Z,93797.72
2023-04-02T12:43:02.350Z,93804.09
2023-04-02T12:45:04.915Z,93799.31
2023-04-02T12:47:06.505Z,93799.75
2023-04-02T12:49:13.995Z,93792.81
2023-04-02T12:51:17.243Z,93794.00
2023-04-02T12:53:23.263Z,93788.97
2023-04-02T12:55:25.575Z,93789.28
2023-04-02T12:57:30.579Z,93785.06
2023-04-02T12:59:36.407Z,93798.31
2023-04-02T13:01:38.087Z,93797.44
2023-04-02T13:03:39.785Z,93779.22
2023-04-02T13:05:42.725Z,93780.34
2023-04-02T13:07:45.087Z,93780.13
2023-04-02T13:09:47.305Z,93771.75
2023-04-02T13:11:48.814Z,93775.19
2023-04-02T13:13:50.590Z,93796.50
2023-04-02T13:16:02.906Z,93780.72
2023-04-02T13:18:19.221Z,93780.69
2023-04-02T13:20:32.780Z,93781.81
2023-04-02T13:22:34.382Z,93785.16
2023-04-02T13:24:35.957Z,93788.69
2023-04-02T13:26:37.565Z,93781.50
2023-04-02T13:28:39.169Z,93778.44
2023-04-02T13:30:41.104Z,93784.84
2023-04-02T13:32:42.768Z,93767.88
2023-04-02T13:34:44.254Z,93777.94
2023-04-02T13:36:46.542Z,93776.69
2023-04-02T13:38:47.990Z,93771.06
2023-04-02T13:40:49.464Z,93772.25
2023-04-02T13:42:51.057Z,93773.00
2023-04-02T13:44:52.539Z,93771.88
2023-04-02T13:46:54.261Z,93771.56
2023-04-02T13:48:55.953Z,93779.44
2023-04-02T13:50:57.463Z,93770.66
2023-04-02T13:52:59.477Z,93767.22
2023-04-02T13:55:01.421Z,93775.13
2023-04-02T13:57:03.163Z,93773.13
2023-04-02T13:59:05.682Z,93775.31
2023-04-02T14:01:07.637Z,93769.38
2023-04-02T14:03:14.494Z,93767.28
2023-04-02T14:05:28.252Z,93777.47
2023-04-02T14:07:48.471Z,93770.91
2023-04-02T14:09:59.899Z,93772.91
2023-04-02T14:12:13.412Z,93765.94
2023-04-02T14:14:24.546Z,93761.38
2023-04-02T14:16:38.504Z,93771.16
2023-04-02T14:18:58.640Z,93771.78
2023-04-02T14:21:12.964Z,93775.97
2023-04-02T14:23:37.554Z,93772.47
2023-04-02T14:25:42.289Z,93771.34
2023-04-02T14:28:03.044Z,93764.88
2023-04-02T14:30:06.664Z,93764.31
2023-04-02T14:32:28.460Z,93765.16
2023-04-02T14:34:29.959Z,93763.69
2023-04-02T14:36:31.532Z,93760.94
2023-04-02T14:38:36.126Z,93758.19
2023-04-02T14:40:43.922Z,93755.09
2023-04-02T14:42:55.043Z,93749.09
2023-04-02T14:45:05.525Z,93756.81
2023-04-02T14:47:14.294Z,93762.31
2023-04-02T14:49:18.876Z,93756.53
2023-04-02T14:51:23.283Z,93766.56
2023-04-02T14:53:27.791Z,93764.16
2023-04-02T14:55:33.292Z,93760.28
2023-04-02T14:57:49.091Z,93768.66
2023-04-02T15:00:08.183Z,93768.25
2023-04-02T15:02:14.970Z,93770.69
2023-04-02T15:04:21.437Z,93770.84
2023-04-02T15:06:40.107Z,93770.75
2023-04-02T15:08:46.780Z,93765.81
2023-04-02T15:10:55.394Z,93765.16
2023-04-02T15:12:57.326Z,93770.53
2023-04-02T15:15:01.699Z,93768.41
2023-04-02T15:17:03.308Z,93773.38
2023-04-02T15:19:09.013Z,93775.06
2023-04-02T15:21:16.990Z,93772.75
2023-04-02T15:23:29.201Z,93780.47
2023-04-02T15:25:35.771Z,93782.69
2023-04-02T15:27:57.274Z,93787.47
2023-04-02T15:30:15.051Z,93776.75
2023-04-02T15:32:35.027Z,93786.19
2023-04-02T15:34:57.821Z,93779.63
2023-04-02T15:37:22.306Z,93780.81
2023-04-02T15:39:26.826Z,93782.56
2023-04-02T15:41:32.372Z,93791.16
2023-04-02T15:43:52.623Z,93788.09
2023-04-02T15:46:05.525Z,93785.72
2023-04-02T15:48:07.196Z,93795.41
2023-04-02T15:50:27.661Z,93790.22
2023-04-02T15:52:34.231Z,93791.59
2023-04-02T15:54:54.852Z,93800.09
2023-04-02T15:57:03.083Z,93786.88
2023-04-02T15:59:12.446Z,93790.94
2023-04-02T16:01:17.623Z,93794.59
2023-04-02T16:03:37.736Z,93795.06
2023-04-02T16:05:41.604Z,93790.53
2023-04-02T16:07:46.078Z,93795.25
2023-04-02T16:10:06.258Z,93793.72
2023-04-02T16:12:33.913Z,93795.97
2023-04-02T16:14:35.442Z,93796.94
2023-04-02T16:16:37.034Z,93797.13
2023-04-02T16:18:38.570Z,93796.09
2023-04-02T16:20:41.722Z,93793.56
2023-04-02T16:22:57.242Z,93798.72
2023-04-02T16:25:04.678Z,93799.94
2023-04-02T16:27:11.800Z,93799.94
2023-04-02T16:29:22.136Z,93805.91
2023-04-02T16:31:26.987Z,93804.31
2023-04-02T16:33:40.678Z,93804.31
2023-04-02T16:35:52.228Z,93808.38
2023-04-02T16:37:58.854Z,93814.09
2023-04-02T16:40:00.377Z,93809.59
2023-04-02T16:42:04.751Z,93812.91
2023-04-02T16:44:25.323Z,93813.22
2023-04-02T16:46:39.068Z,93822.22
2023-04-02T16:48:41.823Z,93816.97
2023-04-02T16:51:04.331Z,93814.19
2023-04-02T16:53:18.314Z,93816.50
2023-04-02T16:55:23.698Z,93826.09
2023-04-02T16:57:44.825Z,93823.50
2023-04-02T16:59:52.152Z,93828.91
2023-04-02T17:01:59.555Z,93834.81
2023-04-02T17:04:24.881Z,93831.44
2023-04-02T17:06:41.426Z,93838.78
2023-04-02T17:08:43.714Z,93835.78
2023-04-02T17:11:03.999Z,93832.94
2023-04-02T17:13:14.480Z,93843.75
2023-04-02T17:15:28.884Z,93842.31
2023-04-02T17:17:30.490Z,93843.38
2023-04-02T17:19:32.589Z,93847.66
2023-04-02T17:21:34.107Z,93842.78
2023-04-02T17:23:56.360Z,93847.47
2023-04-02T17:25:59.357Z,93852.97
2023-04-02T17:28:00.971Z,93856.00
2023-04-02T17:30:12.180Z,93863.13
2023-04-02T17:32:22.053Z,93867.19
2023-04-02T17:34:24.357Z,93870.63
2023-04-02T17:36:35.146Z,93873.50
2023-04-02T17:38:55.390Z,93878.94
2023-04-02T17:40:59.893Z,93882.19
2023-04-02T17:43:16.384Z,93882.38
2023-04-02T17:45:27.165Z,93890.91
2023-04-02T17:47:46.809Z,93891.09
2023-04-02T17:49:57.500Z,93896.78
2023-04-02T17:52:17.513Z,93893.09
2023-04-02T17:54:35.070Z,93901.22
2023-04-02T17:56:50.533Z,93900.00
2023-04-02T17:58:52.123Z,93905.28
2023-04-02T18:01:07.752Z,93905.09
2023-04-02T18:03:30.137Z,93904.25
2023-04-02T18:05:55.885Z,93901.63
2023-04-02T18:07:57.582Z,93904.47
2023-04-02T18:10:18.034Z,93909.94
2023-04-02T18:12:39.680Z,93912.78
2023-04-02T18:14:49.016Z,93930.00
2023-04-02T18:16:53.848Z,93936.47
2023-04-02T18:19:15.860Z,93935.25
2023-04-02T18:21:26.306Z,93930.97
2023-04-02T18:23:44.987Z,93933.84
2023-04-02T18:25:46.985Z,93936.03
2023-04-02T18:27:48.500Z,93937.25
2023-04-02T18:30:12.022Z,93938.84
2023-04-02T18:32:19.342Z,93943.72
2023-04-02T18:34:29.838Z,93944.09
2023-04-02T18:36:40.224Z,93957.44
2023-04-02T18:38:47.447Z,93967.97
2023-04-02T18:40:57.880Z,93968.59
2023-04-02T18:43:05.148Z,93970.00
2023-04-02T18:45:15.409Z,93973.63
2023-04-02T18:47:23.047Z,93974.03
2023-04-02T18:49:30.694Z,93977.28
2023-04-02T18:51:34.033Z,93967.94
2023-04-02T18:53:36.012Z,93969.97
2023-04-02T18:55:37.489Z,93966.94
2023-04-02T18:57:39.115Z,93968.34
2023-04-02T18:59:59.570Z,93973.22
2023-04-02T19:02:03.593Z,93977.25
2023-04-02T19:04:06.498Z,93976.03
2023-04-02T19:06:09.458Z,93977.47
2023-04-02T19:08:13.206Z,93973.19
2023-04-02T19:10:33.722Z,93982.09
2023-04-02T19:12:35.209Z,93971.56
2023-04-02T19:14:37.218Z,93985.28
2023-04-02T19:16:44.828Z,93978.00
2023-04-02T19:18:46.358Z,93986.72
2023-04-02T19:20:53.288Z,93979.00
2023-04-02T19:23:07.522Z,93977.38
2023-04-02T19:25:08.953Z,93987.94
2023-04-02T19:27:32.722Z,93981.66
2023-04-02T19:29:46.963Z,93979.03
2023-04-02T19:31:54.698Z,93980.88
2023-04-02T19:33:56.526Z,93982.31
2023-04-02T19:36:00.911Z,93976.47
2023-04-02T19:38:11.014Z,93972.63
2023-04-02T19:40:24.483Z,93976.47
2023-04-02T19:42:46.051Z,93981.91
2023-04-02T19:44:48.438Z,93981.88
2023-04-02T19:46:51.686Z,93987.72
2023-04-02T19:48:53.190Z,93987.03
2023-04-02T19:50:54.641Z,93987.63
2023-04-02T19:52:56.544Z,93987.81
2023-04-02T19:54:58.276Z,93986.59
2023-04-02T19:57:01.365Z,93992.63
2023-04-02T19:59:17.108Z,93993.09
2023-04-02T20:01:21.643Z,93989.53
2023-04-02T20:03:23.629Z,93993.13
2023-04-02T20:05:25.124Z,94002.44
2023-04-02T20:07:26.531Z,93998.44
2023-04-02T20:09:29.678Z,94003.31
2023-04-02T20:11:31.337Z,93995.69
2023-04-02T20:13:33.102Z,94009.63
2023-04-02T20:15:35.152Z,94004.16
2023-04-02T20:17:36.759Z,94004.16
2023-04-02T20:19:38.355Z,94008.38
2023-04-02T20:21:39.890Z,93995.06
2023-04-02T20:23:41.482Z,94008.03
2023-04-02T20:25:46.905Z,94007.19
2023-04-02T20:27:48.429Z,94003.13
2023-04-02T20:29:49.948Z,93999.47
2023-04-02T20:31:51.887Z,93994.22
2023-04-02T20:33:57.104Z,93997.88
2023-04-02T20:36:19.105Z,94000.00
2023-04-02T20:38:21.594Z,94000.78
2023-04-02T20:40:23.214Z,94007.25
2023-04-02T20:42:25.492Z,94004.00
2023-04-02T20:44:28.769Z,94006.22
2023-04-02T20:46:30.952Z,94011.31
2023-04-02T20:48:33.258Z,94009.72
2023-04-02T20:50:35.431Z,94009.09
2023-04-02T20:52:37.753Z,94008.84
2023-04-02T20:54:39.836Z,94006.84
2023-04-02T20:56:43.476Z,94016.56
2023-04-02T20:58:45.635Z,94012.09
2023-04-02T21:00:47.759Z,94013.09
2023-04-02T21:02:49.663Z,94004.00
2023-04-02T21:04:52.109Z,93997.19
2023-04-02T21:06:57.128Z,94010.47
2023-04-02T21:08:58.698Z,94010.97
2023-04-02T21:11:04.205Z,94018.84
2023-04-02T21:13:05.922Z,94010.97
2023-04-02T21:15:07.907Z,94021.59
2023-04-02T21:17:09.455Z,94013.94
2023-04-02T21:19:12.901Z,94018.72
2023-04-02T21:21:14.614Z,94017.94
2023-04-02T21:23:16.238Z,94018.91
2023-04-02T21:25:17.808Z,94021.22
2023-04-02T21:27:19.349Z,94022.22
2023-04-02T21:29:21.028Z,94024.03
2023-04-02T21:31:23.586Z,94029.47
2023-04-02T21:33:25.245Z,94029.66
2023-04-02T21:35:26.703Z,94030.25
2023-04-02T21:37:28.169Z,94029.47
2023-04-02T21:39:29.678Z,94030.25
2023-04-02T21:41:32.130Z,94032.09
2023-04-02T21:43:33.706Z,94029.22
2023-04-02T21:45:35.548Z,94028.41
2023-04-02T21:47:37.159Z,94030.66
2023-04-02T21:49:38.706Z,94025.72
2023-04-02T21:51:41.193Z,94031.94
2023-04-02T21:53:42.957Z,94033.47
2023-04-02T21:55:44.483Z,94033.63
2023-04-02T21:57:45.984Z,94038.88
2023-04-02T21:59:47.497Z,94037.03
2023-04-02T22:01:49.930Z,94042.28
2023-04-02T22:03:51.717Z,94040.66
2023-04-02T22:06:02.301Z,94040.03
2023-04-02T22:08:03.860Z,94034.59
2023-04-02T22:10:05.768Z,94041.09
2023-04-02T22:12:08.212Z,94032.25
2023-04-02T22:14:09.910Z,94033.22
2023-04-02T22:16:12.534Z,94033.06
2023-04-02T22:18:14.035Z,94040.75
2023-04-02T22:20:15.599Z,94037.31
2023-04-02T22:22:17.118Z,94039.19
2023-04-02T22:24:19.045Z,94033.41
2023-04-02T22:26:21.505Z,94037.50
2023-04-02T22:28:23.011Z,94040.78
2023-04-02T22:30:26.616Z,94047.00
2023-04-02T22:32:28.201Z,94039.13
2023-04-02T22:34:29.690Z,94036.34
2023-04-02T22:36:31.297Z,94040.41
2023-04-02T22:38:33.306Z,94040.78
2023-04-02T22:40:35.112Z,94039.28
2023-04-02T22:42:38.376Z,94039.84
2023-04-02T22:44:39.827Z,94048.09
2023-04-02T22:46:41.490Z,94047.44
2023-04-02T22:48:43.677Z,94044.66
2023-04-02T22:50:49.263Z,94047.28
2023-04-02T22:52:50.758Z,94041.56
2023-04-02T22:54:52.277Z,94039.28
2023-04-02T22:56:53.835Z,94040.84
2023-04-02T22:58:55.430Z,94044.09
2023-04-02T23:01:02.732Z,94049.53
2023-04-02T23:03:04.354Z,94044.44
2023-04-02T23:05:06.297Z,94038.31
2023-04-02T23:07:07.878Z,94037.50
2023-04-02T23:09:09.354Z,94037.84
2023-04-02T23:11:11.955Z,94038.47
2023-04-02T23:13:13.421Z,94039.66
2023-04-02T23:15:14.961Z,94041.31
2023-04-02T23:17:16.484Z,94037.84
2023-04-02T23:19:18.016Z,94041.03
2023-04-02T23:21:19.712Z,94043.19
2023-04-02T23:23:21.504Z,94040.56
2023-04-02T23:25:23.022Z,94040.75
2023-04-02T23:27:24.540Z,94041.41
2023-04-02T23:29:26.026Z,94041.13
2023-04-02T23:31:27.592Z,94034.06
2023-04-02T23:33:29.185Z,94042.22
2023-04-02T23:35:30.720Z,94038.06
2023-04-02T23:37:32.259Z,94038.53
2023-04-02T23:39:33.720Z,94041.34
2023-04-02T23:41:35.471Z,94033.09
2023-04-02T23:43:36.961Z,94033.56
2023-04-02T23:45:38.484Z,94033.41
2023-04-02T23:47:40.102Z,94024.00
2023-04-02T23:49:47.520Z,94029.53
2023-04-02T23:51:49.061Z,94029.16
2023-04-02T23:53:50.964Z,94029.00
2023-04-02T23:55:52.447Z,94022.94
2023-04-02T23:57:53.958Z,94024.13
2023-04-02T23:59:55.547Z,94025.09
